sensor_id;sensor_type;location;lat;lon;timestamp;P1;durP1;ratioP1;P2;durP2;ratioP2
27161;SDS011;54464;50.558;9.704;2023-05-10T00:00:37;5.93;;;5.33;;
27161;SDS011;54464;50.558;9.704;2023-05-10T00:03:02;6.13;;;5.53;;
27161;SDS011;54464;50.558;9.704;2023-05-10T00:05:29;5.10;;;4.70;;
27161;SDS011;54464;50.558;9.704;2023-05-10T00:07:55;5.20;;;4.70;;
27161;SDS011;54464;50.558;9.704;2023-05-10T00:10:21;4.93;;;4.53;;
27161;SDS011;54464;50.558;9.704;2023-05-10T00:12:47;4.93;;;4.50;;
27161;SDS011;54464;50.558;9.704;2023-05-10T00:15:12;4.67;;;4.27;;
27161;SDS011;54464;50.558;9.704;2023-05-10T00:17:38;4.40;;;4.00;;
27161;SDS011;54464;50.558;9.704;2023-05-10T00:20:04;4.20;;;3.90;;
27161;SDS011;54464;50.558;9.704;2023-05-10T00:22:30;4.40;;;4.00;;
27161;SDS011;54464;50.558;9.704;2023-05-10T00:24:56;3.87;;;3.57;;
27161;SDS011;54464;50.558;9.704;2023-05-10T00:27:22;4.20;;;3.80;;
27161;SDS011;54464;50.558;9.704;2023-05-10T00:29:48;3.93;;;3.50;;
27161;SDS011;54464;50.558;9.704;2023-05-10T00:32:14;4.10;;;3.80;;
27161;SDS011;54464;50.558;9.704;2023-05-10T00:34:39;3.83;;;3.53;;
27161;SDS011;54464;50.558;9.704;2023-05-10T00:37:05;4.00;;;3.60;;
27161;SDS011;54464;50.558;9.704;2023-05-10T00:39:31;6.93;;;4.50;;
27161;SDS011;54464;50.558;9.704;2023-05-10T00:41:56;8.00;;;7.30;;
27161;SDS011;54464;50.558;9.704;2023-05-10T00:44:22;9.57;;;7.93;;
27161;SDS011;54464;50.558;9.704;2023-05-10T00:46:48;12.43;;;11.13;;
27161;SDS011;54464;50.558;9.704;2023-05-10T00:49:14;15.57;;;12.30;;
27161;SDS011;54464;50.558;9.704;2023-05-10T00:51:40;15.00;;;12.60;;
27161;SDS011;54464;50.558;9.704;2023-05-10T00:54:07;20.63;;;14.40;;
27161;SDS011;54464;50.558;9.704;2023-05-10T00:56:36;15.00;;;11.80;;
27161;SDS011;54464;50.558;9.704;2023-05-10T00:59:01;14.17;;;11.47;;
27161;SDS011;54464;50.558;9.704;2023-05-10T01:01:27;12.73;;;9.50;;
27161;SDS011;54464;50.558;9.704;2023-05-10T01:03:54;10.17;;;8.63;;
27161;SDS011;54464;50.558;9.704;2023-05-10T01:06:20;8.73;;;7.17;;
27161;SDS011;54464;50.558;9.704;2023-05-10T01:15:17;9.83;;;7.80;;
27161;SDS011;54464;50.558;9.704;2023-05-10T01:17:45;10.83;;;8.77;;
27161;SDS011;54464;50.558;9.704;2023-05-10T01:20:12;10.23;;;9.13;;
27161;SDS011;54464;50.558;9.704;2023-05-10T01:25:23;10.53;;;7.60;;
27161;SDS011;54464;50.558;9.704;2023-05-10T01:28:08;11.23;;;8.57;;
27161;SDS011;54464;50.558;9.704;2023-05-10T01:36:08;8.57;;;7.50;;
27161;SDS011;54464;50.558;9.704;2023-05-10T01:38:47;9.17;;;7.80;;
27161;SDS011;54464;50.558;9.704;2023-05-10T01:47:15;8.13;;;7.03;;
27161;SDS011;54464;50.558;9.704;2023-05-10T01:49:49;7.20;;;6.50;;
27161;SDS011;54464;50.558;9.704;2023-05-10T01:52:18;8.07;;;7.27;;
27161;SDS011;54464;50.558;9.704;2023-05-10T01:54:59;8.80;;;7.90;;
27161;SDS011;54464;50.558;9.704;2023-05-10T01:57:27;9.40;;;7.37;;
27161;SDS011;54464;50.558;9.704;2023-05-10T01:59:58;6.50;;;5.90;;
27161;SDS011;54464;50.558;9.704;2023-05-10T02:02:26;7.20;;;6.50;;
27161;SDS011;54464;50.558;9.704;2023-05-10T02:04:54;7.83;;;6.77;;
27161;SDS011;54464;50.558;9.704;2023-05-10T02:07:21;8.53;;;7.63;;
27161;SDS011;54464;50.558;9.704;2023-05-10T02:09:48;8.10;;;6.83;;
27161;SDS011;54464;50.558;9.704;2023-05-10T02:12:15;4.10;;;3.70;;
27161;SDS011;54464;50.558;9.704;2023-05-10T02:14:42;3.20;;;2.90;;
27161;SDS011;54464;50.558;9.704;2023-05-10T02:17:08;1.90;;;1.80;;
27161;SDS011;54464;50.558;9.704;2023-05-10T02:19:35;3.50;;;1.60;;
27161;SDS011;54464;50.558;9.704;2023-05-10T02:22:03;1.60;;;1.50;;
27161;SDS011;54464;50.558;9.704;2023-05-10T02:24:29;1.60;;;1.50;;
27161;SDS011;54464;50.558;9.704;2023-05-10T02:26:57;1.80;;;1.40;;
27161;SDS011;54464;50.558;9.704;2023-05-10T02:29:24;2.07;;;1.20;;
27161;SDS011;54464;50.558;9.704;2023-05-10T02:31:51;1.50;;;1.40;;
27161;SDS011;54464;50.558;9.704;2023-05-10T02:34:19;1.60;;;1.50;;
27161;SDS011;54464;50.558;9.704;2023-05-10T02:36:46;2.20;;;2.00;;
27161;SDS011;54464;50.558;9.704;2023-05-10T02:39:13;3.90;;;2.10;;
27161;SDS011;54464;50.558;9.704;2023-05-10T02:41:40;1.50;;;1.40;;
27161;SDS011;54464;50.558;9.704;2023-05-10T02:44:07;1.60;;;0.70;;
27161;SDS011;54464;50.558;9.704;2023-05-10T02:46:34;0.60;;;0.60;;
27161;SDS011;54464;50.558;9.704;2023-05-10T02:49:00;1.30;;;0.60;;
27161;SDS011;54464;50.558;9.704;2023-05-10T02:51:26;0.57;;;0.53;;
27161;SDS011;54464;50.558;9.704;2023-05-10T02:54:01;0.50;;;0.50;;
27161;SDS011;54464;50.558;9.704;2023-05-10T02:56:34;0.50;;;0.50;;
27161;SDS011;54464;50.558;9.704;2023-05-10T02:59:04;0.87;;;0.50;;
27161;SDS011;54464;50.558;9.704;2023-05-10T03:01:30;1.17;;;0.70;;
27161;SDS011;54464;50.558;9.704;2023-05-10T03:03:55;0.67;;;0.63;;
27161;SDS011;54464;50.558;9.704;2023-05-10T03:06:21;0.60;;;0.60;;
27161;SDS011;54464;50.558;9.704;2023-05-10T03:08:46;0.70;;;0.60;;
27161;SDS011;54464;50.558;9.704;2023-05-10T03:16:31;0.50;;;0.50;;
27161;SDS011;54464;50.558;9.704;2023-05-10T03:21:49;0.60;;;0.60;;
27161;SDS011;54464;50.558;9.704;2023-05-10T03:24:18;0.60;;;0.60;;
27161;SDS011;54464;50.558;9.704;2023-05-10T03:26:46;1.00;;;0.60;;
27161;SDS011;54464;50.558;9.704;2023-05-10T03:29:13;0.60;;;0.60;;
27161;SDS011;54464;50.558;9.704;2023-05-10T03:31:40;1.13;;;0.50;;
27161;SDS011;54464;50.558;9.704;2023-05-10T03:34:06;0.60;;;0.60;;
27161;SDS011;54464;50.558;9.704;2023-05-10T03:36:32;0.60;;;0.50;;
27161;SDS011;54464;50.558;9.704;2023-05-10T03:39:00;0.70;;;0.70;;
27161;SDS011;54464;50.558;9.704;2023-05-10T03:41:26;0.53;;;0.53;;
27161;SDS011;54464;50.558;9.704;2023-05-10T03:43:52;0.40;;;0.40;;
27161;SDS011;54464;50.558;9.704;2023-05-10T03:46:17;1.67;;;0.53;;
27161;SDS011;54464;50.558;9.704;2023-05-10T03:48:43;1.10;;;0.60;;
27161;SDS011;54464;50.558;9.704;2023-05-10T03:51:08;1.77;;;0.60;;
27161;SDS011;54464;50.558;9.704;2023-05-10T03:53:34;0.97;;;0.70;;
27161;SDS011;54464;50.558;9.704;2023-05-10T03:56:00;0.50;;;0.50;;
27161;SDS011;54464;50.558;9.704;2023-05-10T03:58:26;0.60;;;0.60;;
27161;SDS011;54464;50.558;9.704;2023-05-10T04:00:51;0.60;;;0.60;;
27161;SDS011;54464;50.558;9.704;2023-05-10T04:03:17;1.27;;;0.97;;
27161;SDS011;54464;50.558;9.704;2023-05-10T04:05:43;0.87;;;0.87;;
27161;SDS011;54464;50.558;9.704;2023-05-10T04:08:08;0.90;;;0.90;;
27161;SDS011;54464;50.558;9.704;2023-05-10T04:10:34;2.13;;;1.30;;
27161;SDS011;54464;50.558;9.704;2023-05-10T04:13:00;1.57;;;1.10;;
27161;SDS011;54464;50.558;9.704;2023-05-10T04:15:25;1.47;;;1.20;;
27161;SDS011;54464;50.558;9.704;2023-05-10T04:17:51;2.27;;;1.40;;
27161;SDS011;54464;50.558;9.704;2023-05-10T04:20:16;2.50;;;1.57;;
27161;SDS011;54464;50.558;9.704;2023-05-10T04:22:42;3.27;;;2.27;;
27161;SDS011;54464;50.558;9.704;2023-05-10T04:25:08;2.40;;;2.20;;
27161;SDS011;54464;50.558;9.704;2023-05-10T04:27:34;2.90;;;1.60;;
27161;SDS011;54464;50.558;9.704;2023-05-10T04:29:59;2.37;;;2.17;;
27161;SDS011;54464;50.558;9.704;2023-05-10T04:32:25;2.27;;;2.00;;
27161;SDS011;54464;50.558;9.704;2023-05-10T04:34:51;3.67;;;3.37;;
27161;SDS011;54464;50.558;9.704;2023-05-10T04:37:16;1.70;;;1.60;;
27161;SDS011;54464;50.558;9.704;2023-05-10T04:39:42;3.27;;;2.53;;
27161;SDS011;54464;50.558;9.704;2023-05-10T04:42:08;5.73;;;5.30;;
27161;SDS011;54464;50.558;9.704;2023-05-10T04:44:34;4.20;;;3.90;;
27161;SDS011;54464;50.558;9.704;2023-05-10T04:47:00;6.63;;;6.03;;
27161;SDS011;54464;50.558;9.704;2023-05-10T04:49:27;2.20;;;2.07;;
27161;SDS011;54464;50.558;9.704;2023-05-10T04:51:53;2.23;;;1.60;;
27161;SDS011;54464;50.558;9.704;2023-05-10T04:54:18;3.33;;;2.07;;
27161;SDS011;54464;50.558;9.704;2023-05-10T04:56:44;2.43;;;2.23;;
27161;SDS011;54464;50.558;9.704;2023-05-10T04:59:09;2.07;;;1.50;;
27161;SDS011;54464;50.558;9.704;2023-05-10T05:01:35;1.30;;;1.20;;
27161;SDS011;54464;50.558;9.704;2023-05-10T05:04:01;0.83;;;0.83;;
27161;SDS011;54464;50.558;9.704;2023-05-10T05:06:26;1.07;;;1.00;;
27161;SDS011;54464;50.558;9.704;2023-05-10T05:08:52;0.93;;;0.93;;
27161;SDS011;54464;50.558;9.704;2023-05-10T05:11:18;1.40;;;1.30;;
27161;SDS011;54464;50.558;9.704;2023-05-10T05:13:44;1.60;;;1.37;;
27161;SDS011;54464;50.558;9.704;2023-05-10T05:16:10;1.10;;;1.00;;
27161;SDS011;54464;50.558;9.704;2023-05-10T05:18:38;1.67;;;1.10;;
27161;SDS011;54464;50.558;9.704;2023-05-10T05:21:12;1.53;;;1.40;;
27161;SDS011;54464;50.558;9.704;2023-05-10T05:23:42;2.10;;;1.60;;
27161;SDS011;54464;50.558;9.704;2023-05-10T05:26:08;1.20;;;1.10;;
27161;SDS011;54464;50.558;9.704;2023-05-10T05:28:33;1.00;;;1.00;;
27161;SDS011;54464;50.558;9.704;2023-05-10T05:31:02;1.20;;;1.10;;
27161;SDS011;54464;50.558;9.704;2023-05-10T05:33:28;1.40;;;1.30;;
27161;SDS011;54464;50.558;9.704;2023-05-10T05:35:54;1.40;;;1.30;;
27161;SDS011;54464;50.558;9.704;2023-05-10T05:38:19;1.40;;;1.30;;
27161;SDS011;54464;50.558;9.704;2023-05-10T05:40:45;1.80;;;1.70;;
27161;SDS011;54464;50.558;9.704;2023-05-10T05:43:11;1.57;;;1.27;;
27161;SDS011;54464;50.558;9.704;2023-05-10T05:45:37;1.97;;;1.40;;
27161;SDS011;54464;50.558;9.704;2023-05-10T05:48:02;1.60;;;1.50;;
27161;SDS011;54464;50.558;9.704;2023-05-10T05:50:28;1.50;;;1.40;;
27161;SDS011;54464;50.558;9.704;2023-05-10T05:52:53;1.80;;;1.40;;
27161;SDS011;54464;50.558;9.704;2023-05-10T05:55:20;1.77;;;1.67;;
27161;SDS011;54464;50.558;9.704;2023-05-10T05:57:46;1.40;;;1.30;;
27161;SDS011;54464;50.558;9.704;2023-05-10T06:00:12;1.40;;;1.30;;
27161;SDS011;54464;50.558;9.704;2023-05-10T06:02:38;1.33;;;1.23;;
27161;SDS011;54464;50.558;9.704;2023-05-10T06:05:03;2.50;;;1.60;;
27161;SDS011;54464;50.558;9.704;2023-05-10T06:07:29;1.67;;;1.57;;
27161;SDS011;54464;50.558;9.704;2023-05-10T06:09:55;2.60;;;1.67;;
27161;SDS011;54464;50.558;9.704;2023-05-10T06:12:21;2.43;;;2.00;;
27161;SDS011;54464;50.558;9.704;2023-05-10T06:14:46;1.90;;;1.80;;
27161;SDS011;54464;50.558;9.704;2023-05-10T06:17:12;1.80;;;1.70;;
27161;SDS011;54464;50.558;9.704;2023-05-10T06:19:37;2.33;;;1.70;;
27161;SDS011;54464;50.558;9.704;2023-05-10T06:22:03;1.73;;;1.63;;
27161;SDS011;54464;50.558;9.704;2023-05-10T06:24:29;2.53;;;1.97;;
27161;SDS011;54464;50.558;9.704;2023-05-10T06:26:57;1.50;;;1.40;;
27161;SDS011;54464;50.558;9.704;2023-05-10T06:29:25;1.70;;;1.40;;
27161;SDS011;54464;50.558;9.704;2023-05-10T06:31:51;1.50;;;1.40;;
27161;SDS011;54464;50.558;9.704;2023-05-10T06:34:16;1.60;;;1.50;;
27161;SDS011;54464;50.558;9.704;2023-05-10T06:36:42;2.13;;;1.30;;
27161;SDS011;54464;50.558;9.704;2023-05-10T06:39:08;1.33;;;1.23;;
27161;SDS011;54464;50.558;9.704;2023-05-10T06:41:33;1.40;;;1.30;;
27161;SDS011;54464;50.558;9.704;2023-05-10T06:43:59;1.40;;;1.30;;
27161;SDS011;54464;50.558;9.704;2023-05-10T06:46:24;1.67;;;1.23;;
27161;SDS011;54464;50.558;9.704;2023-05-10T06:48:50;2.57;;;1.57;;
27161;SDS011;54464;50.558;9.704;2023-05-10T06:51:16;1.67;;;1.47;;
27161;SDS011;54464;50.558;9.704;2023-05-10T06:53:42;1.30;;;1.20;;
27161;SDS011;54464;50.558;9.704;2023-05-10T06:56:08;1.70;;;1.60;;
27161;SDS011;54464;50.558;9.704;2023-05-10T06:58:33;2.40;;;1.70;;
27161;SDS011;54464;50.558;9.704;2023-05-10T07:01:03;3.13;;;1.70;;
27161;SDS011;54464;50.558;9.704;2023-05-10T07:03:29;2.70;;;1.90;;
27161;SDS011;54464;50.558;9.704;2023-05-10T07:05:59;2.80;;;1.80;;
27161;SDS011;54464;50.558;9.704;2023-05-10T07:08:28;2.10;;;1.87;;
27161;SDS011;54464;50.558;9.704;2023-05-10T07:10:58;2.10;;;1.90;;
27161;SDS011;54464;50.558;9.704;2023-05-10T07:13:29;1.83;;;1.70;;
27161;SDS011;54464;50.558;9.704;2023-05-10T07:15:58;2.60;;;1.97;;
27161;SDS011;54464;50.558;9.704;2023-05-10T07:18:25;2.63;;;1.87;;
27161;SDS011;54464;50.558;9.704;2023-05-10T07:20:51;2.43;;;1.57;;
27161;SDS011;54464;50.558;9.704;2023-05-10T07:23:17;1.93;;;1.80;;
27161;SDS011;54464;50.558;9.704;2023-05-10T07:25:47;2.30;;;2.10;;
27161;SDS011;54464;50.558;9.704;2023-05-10T07:28:13;1.90;;;1.80;;
27161;SDS011;54464;50.558;9.704;2023-05-10T07:30:40;2.20;;;1.97;;
27161;SDS011;54464;50.558;9.704;2023-05-10T07:33:06;1.77;;;1.67;;
27161;SDS011;54464;50.558;9.704;2023-05-10T07:35:33;2.00;;;1.67;;
27161;SDS011;54464;50.558;9.704;2023-05-10T07:37:59;1.97;;;1.50;;
27161;SDS011;54464;50.558;9.704;2023-05-10T07:40:24;1.43;;;1.33;;
27161;SDS011;54464;50.558;9.704;2023-05-10T07:42:50;2.77;;;1.90;;
27161;SDS011;54464;50.558;9.704;2023-05-10T07:45:16;1.70;;;1.60;;
27161;SDS011;54464;50.558;9.704;2023-05-10T07:47:42;1.70;;;1.60;;
27161;SDS011;54464;50.558;9.704;2023-05-10T07:50:08;3.23;;;2.50;;
27161;SDS011;54464;50.558;9.704;2023-05-10T07:52:34;1.63;;;1.53;;
27161;SDS011;54464;50.558;9.704;2023-05-10T07:54:59;2.17;;;1.30;;
27161;SDS011;54464;50.558;9.704;2023-05-10T07:57:25;2.30;;;1.40;;
27161;SDS011;54464;50.558;9.704;2023-05-10T07:59:50;1.50;;;1.40;;
27161;SDS011;54464;50.558;9.704;2023-05-10T08:02:16;1.57;;;1.43;;
27161;SDS011;54464;50.558;9.704;2023-05-10T08:04:42;1.50;;;1.40;;
27161;SDS011;54464;50.558;9.704;2023-05-10T08:07:07;1.67;;;1.40;;
27161;SDS011;54464;50.558;9.704;2023-05-10T08:09:33;1.60;;;1.50;;
27161;SDS011;54464;50.558;9.704;2023-05-10T08:11:58;1.30;;;1.20;;
27161;SDS011;54464;50.558;9.704;2023-05-10T08:14:24;1.30;;;1.20;;
27161;SDS011;54464;50.558;9.704;2023-05-10T08:16:50;1.53;;;1.20;;
27161;SDS011;54464;50.558;9.704;2023-05-10T08:19:16;1.27;;;1.17;;
27161;SDS011;54464;50.558;9.704;2023-05-10T08:21:46;2.20;;;1.20;;
27161;SDS011;54464;50.558;9.704;2023-05-10T08:24:12;1.17;;;1.13;;
27161;SDS011;54464;50.558;9.704;2023-05-10T08:26:38;1.40;;;1.30;;
27161;SDS011;54464;50.558;9.704;2023-05-10T08:29:03;1.40;;;1.23;;
27161;SDS011;54464;50.558;9.704;2023-05-10T08:31:29;1.30;;;1.20;;
27161;SDS011;54464;50.558;9.704;2023-05-10T08:33:55;2.43;;;1.30;;
27161;SDS011;54464;50.558;9.704;2023-05-10T08:36:20;1.50;;;1.40;;
27161;SDS011;54464;50.558;9.704;2023-05-10T08:38:52;1.70;;;1.60;;
27161;SDS011;54464;50.558;9.704;2023-05-10T08:41:21;1.63;;;1.33;;
27161;SDS011;54464;50.558;9.704;2023-05-10T08:43:51;1.30;;;1.20;;
27161;SDS011;54464;50.558;9.704;2023-05-10T08:46:18;1.37;;;1.23;;
27161;SDS011;54464;50.558;9.704;2023-05-10T08:48:46;2.47;;;1.13;;
27161;SDS011;54464;50.558;9.704;2023-05-10T08:51:13;1.23;;;1.13;;
27161;SDS011;54464;50.558;9.704;2023-05-10T08:53:43;1.20;;;1.10;;
27161;SDS011;54464;50.558;9.704;2023-05-10T08:56:10;1.90;;;1.00;;
27161;SDS011;54464;50.558;9.704;2023-05-10T08:58:36;1.10;;;1.00;;
27161;SDS011;54464;50.558;9.704;2023-05-10T09:01:02;1.00;;;1.00;;
27161;SDS011;54464;50.558;9.704;2023-05-10T09:03:29;1.30;;;1.20;;
27161;SDS011;54464;50.558;9.704;2023-05-10T09:05:55;1.63;;;0.90;;
27161;SDS011;54464;50.558;9.704;2023-05-10T09:08:22;0.70;;;0.70;;
27161;SDS011;54464;50.558;9.704;2023-05-10T09:10:52;1.47;;;1.00;;
27161;SDS011;54464;50.558;9.704;2023-05-10T09:13:19;1.27;;;0.83;;
27161;SDS011;54464;50.558;9.704;2023-05-10T09:15:46;0.90;;;0.90;;
27161;SDS011;54464;50.558;9.704;2023-05-10T09:18:13;1.17;;;0.90;;
27161;SDS011;54464;50.558;9.704;2023-05-10T09:20:38;1.00;;;0.90;;
27161;SDS011;54464;50.558;9.704;2023-05-10T09:23:04;0.80;;;0.80;;
27161;SDS011;54464;50.558;9.704;2023-05-10T09:25:30;1.10;;;1.00;;
27161;SDS011;54464;50.558;9.704;2023-05-10T09:27:58;0.70;;;0.70;;
27161;SDS011;54464;50.558;9.704;2023-05-10T09:30:25;0.93;;;0.80;;
27161;SDS011;54464;50.558;9.704;2023-05-10T09:32:52;1.20;;;0.90;;
27161;SDS011;54464;50.558;9.704;2023-05-10T09:35:22;0.87;;;0.87;;
27161;SDS011;54464;50.558;9.704;2023-05-10T09:37:50;2.13;;;1.00;;
27161;SDS011;54464;50.558;9.704;2023-05-10T09:40:19;1.43;;;1.00;;
27161;SDS011;54464;50.558;9.704;2023-05-10T09:42:56;0.97;;;0.97;;
27161;SDS011;54464;50.558;9.704;2023-05-10T09:45:24;0.73;;;0.73;;
27161;SDS011;54464;50.558;9.704;2023-05-10T09:47:51;0.90;;;0.90;;
27161;SDS011;54464;50.558;9.704;2023-05-10T09:50:18;1.00;;;0.90;;
27161;SDS011;54464;50.558;9.704;2023-05-10T09:52:49;1.20;;;1.10;;
27161;SDS011;54464;50.558;9.704;2023-05-10T09:55:20;2.53;;;1.43;;
27161;SDS011;54464;50.558;9.704;2023-05-10T09:57:47;1.77;;;1.20;;
27161;SDS011;54464;50.558;9.704;2023-05-10T10:00:26;3.67;;;0.97;;
27161;SDS011;54464;50.558;9.704;2023-05-10T10:02:57;1.17;;;1.10;;
27161;SDS011;54464;50.558;9.704;2023-05-10T10:07:55;1.20;;;1.10;;
27161;SDS011;54464;50.558;9.704;2023-05-10T10:10:23;1.30;;;1.10;;
27161;SDS011;54464;50.558;9.704;2023-05-10T10:12:52;1.40;;;1.10;;
27161;SDS011;54464;50.558;9.704;2023-05-10T10:15:18;1.43;;;0.93;;
27161;SDS011;54464;50.558;9.704;2023-05-10T10:17:48;0.97;;;0.93;;
27161;SDS011;54464;50.558;9.704;2023-05-10T10:20:15;1.37;;;0.80;;
27161;SDS011;54464;50.558;9.704;2023-05-10T10:22:42;0.97;;;0.80;;
27161;SDS011;54464;50.558;9.704;2023-05-10T10:25:17;1.00;;;0.90;;
27161;SDS011;54464;50.558;9.704;2023-05-10T10:35:23;0.80;;;0.80;;
27161;SDS011;54464;50.558;9.704;2023-05-10T10:37:50;1.00;;;1.00;;
27161;SDS011;54464;50.558;9.704;2023-05-10T10:40:34;1.20;;;1.10;;
27161;SDS011;54464;50.558;9.704;2023-05-10T10:48:48;1.33;;;1.20;;
27161;SDS011;54464;50.558;9.704;2023-05-10T10:51:16;1.50;;;1.30;;
27161;SDS011;54464;50.558;9.704;2023-05-10T10:53:42;1.40;;;1.30;;
27161;SDS011;54464;50.558;9.704;2023-05-10T10:56:09;1.00;;;0.90;;
27161;SDS011;54464;50.558;9.704;2023-05-10T10:58:36;0.93;;;0.93;;
27161;SDS011;54464;50.558;9.704;2023-05-10T11:01:12;1.10;;;1.00;;
27161;SDS011;54464;50.558;9.704;2023-05-10T11:03:40;0.93;;;0.93;;
27161;SDS011;54464;50.558;9.704;2023-05-10T11:06:28;1.23;;;1.13;;
27161;SDS011;54464;50.558;9.704;2023-05-10T11:08:57;1.90;;;1.00;;
27161;SDS011;54464;50.558;9.704;2023-05-10T11:11:23;1.33;;;1.23;;
27161;SDS011;54464;50.558;9.704;2023-05-10T11:13:49;2.40;;;1.17;;
27161;SDS011;54464;50.558;9.704;2023-05-10T11:16:21;1.37;;;1.10;;
27161;SDS011;54464;50.558;9.704;2023-05-10T11:21:33;2.50;;;1.30;;
27161;SDS011;54464;50.558;9.704;2023-05-10T11:24:12;1.40;;;1.30;;
27161;SDS011;54464;50.558;9.704;2023-05-10T11:26:39;2.23;;;1.40;;
27161;SDS011;54464;50.558;9.704;2023-05-10T11:29:05;2.93;;;1.40;;
27161;SDS011;54464;50.558;9.704;2023-05-10T11:31:31;1.60;;;1.50;;
27161;SDS011;54464;50.558;9.704;2023-05-10T11:33:57;1.30;;;1.20;;
27161;SDS011;54464;50.558;9.704;2023-05-10T11:36:27;2.00;;;1.40;;
27161;SDS011;54464;50.558;9.704;2023-05-10T11:38:57;1.93;;;1.80;;
27161;SDS011;54464;50.558;9.704;2023-05-10T11:41:23;3.67;;;1.83;;
27161;SDS011;54464;50.558;9.704;2023-05-10T11:43:50;2.10;;;1.80;;
27161;SDS011;54464;50.558;9.704;2023-05-10T11:46:17;2.23;;;1.80;;
27161;SDS011;54464;50.558;9.704;2023-05-10T11:48:45;2.23;;;1.50;;
27161;SDS011;54464;50.558;9.704;2023-05-10T11:51:14;1.77;;;1.67;;
27161;SDS011;54464;50.558;9.704;2023-05-10T11:53:40;2.83;;;1.80;;
27161;SDS011;54464;50.558;9.704;2023-05-10T11:56:06;4.10;;;2.40;;
27161;SDS011;54464;50.558;9.704;2023-05-10T11:58:33;5.80;;;3.10;;
27161;SDS011;54464;50.558;9.704;2023-05-10T12:00:59;7.93;;;4.03;;
27161;SDS011;54464;50.558;9.704;2023-05-10T12:03:26;8.87;;;4.90;;
27161;SDS011;54464;50.558;9.704;2023-05-10T12:05:52;15.57;;;5.50;;
27161;SDS011;54464;50.558;9.704;2023-05-10T12:08:23;15.17;;;6.30;;
27161;SDS011;54464;50.558;9.704;2023-05-10T12:10:53;10.23;;;6.13;;
27161;SDS011;54464;50.558;9.704;2023-05-10T12:13:31;13.50;;;6.73;;
27161;SDS011;54464;50.558;9.704;2023-05-10T12:15:57;10.17;;;6.00;;
27161;SDS011;54464;50.558;9.704;2023-05-10T12:18:23;10.40;;;5.87;;
27161;SDS011;54464;50.558;9.704;2023-05-10T12:20:52;15.97;;;7.00;;
27161;SDS011;54464;50.558;9.704;2023-05-10T12:23:18;17.30;;;7.43;;
27161;SDS011;54464;50.558;9.704;2023-05-10T12:25:45;15.10;;;7.67;;
27161;SDS011;54464;50.558;9.704;2023-05-10T12:28:10;21.23;;;7.67;;
27161;SDS011;54464;50.558;9.704;2023-05-10T12:30:36;19.43;;;9.73;;
27161;SDS011;54464;50.558;9.704;2023-05-10T12:33:06;18.30;;;9.53;;
27161;SDS011;54464;50.558;9.704;2023-05-10T12:35:49;11.47;;;7.90;;
27161;SDS011;54464;50.558;9.704;2023-05-10T12:38:28;19.07;;;10.23;;
27161;SDS011;54464;50.558;9.704;2023-05-10T12:40:59;21.23;;;11.33;;
27161;SDS011;54464;50.558;9.704;2023-05-10T12:43:27;17.50;;;10.60;;
27161;SDS011;54464;50.558;9.704;2023-05-10T12:45:53;17.67;;;9.33;;
27161;SDS011;54464;50.558;9.704;2023-05-10T12:48:19;17.03;;;8.70;;
27161;SDS011;54464;50.558;9.704;2023-05-10T12:50:45;12.13;;;7.93;;
27161;SDS011;54464;50.558;9.704;2023-05-10T12:53:11;16.13;;;8.67;;
27161;SDS011;54464;50.558;9.704;2023-05-10T12:55:38;14.40;;;8.67;;
27161;SDS011;54464;50.558;9.704;2023-05-10T12:58:04;13.37;;;7.83;;
27161;SDS011;54464;50.558;9.704;2023-05-10T13:00:29;12.03;;;7.43;;
27161;SDS011;54464;50.558;9.704;2023-05-10T13:02:55;9.07;;;6.23;;
27161;SDS011;54464;50.558;9.704;2023-05-10T13:05:21;5.77;;;4.43;;
27161;SDS011;54464;50.558;9.704;2023-05-10T13:07:46;5.00;;;4.10;;
27161;SDS011;54464;50.558;9.704;2023-05-10T13:10:12;5.30;;;4.63;;
27161;SDS011;54464;50.558;9.704;2023-05-10T13:12:37;6.57;;;4.30;;
27161;SDS011;54464;50.558;9.704;2023-05-10T13:15:03;3.50;;;3.20;;
27161;SDS011;54464;50.558;9.704;2023-05-10T13:17:29;5.07;;;3.50;;
27161;SDS011;54464;50.558;9.704;2023-05-10T13:19:54;3.00;;;2.60;;
27161;SDS011;54464;50.558;9.704;2023-05-10T13:22:20;3.17;;;2.30;;
27161;SDS011;54464;50.558;9.704;2023-05-10T13:24:46;2.53;;;2.30;;
27161;SDS011;54464;50.558;9.704;2023-05-10T13:27:11;2.37;;;1.87;;
27161;SDS011;54464;50.558;9.704;2023-05-10T13:29:37;2.77;;;2.00;;
27161;SDS011;54464;50.558;9.704;2023-05-10T13:32:02;2.50;;;2.00;;
27161;SDS011;54464;50.558;9.704;2023-05-10T13:34:28;2.50;;;1.80;;
27161;SDS011;54464;50.558;9.704;2023-05-10T13:36:54;2.87;;;1.80;;
27161;SDS011;54464;50.558;9.704;2023-05-10T13:39:21;2.83;;;1.90;;
27161;SDS011;54464;50.558;9.704;2023-05-10T13:41:47;2.33;;;2.03;;
27161;SDS011;54464;50.558;9.704;2023-05-10T13:44:13;2.63;;;2.10;;
27161;SDS011;54464;50.558;9.704;2023-05-10T13:46:39;1.97;;;1.80;;
27161;SDS011;54464;50.558;9.704;2023-05-10T13:49:07;2.40;;;1.97;;
27161;SDS011;54464;50.558;9.704;2023-05-10T13:51:33;2.80;;;1.97;;
27161;SDS011;54464;50.558;9.704;2023-05-10T13:53:59;2.33;;;2.13;;
27161;SDS011;54464;50.558;9.704;2023-05-10T13:56:25;2.67;;;2.17;;
27161;SDS011;54464;50.558;9.704;2023-05-10T13:58:51;1.87;;;1.60;;
27161;SDS011;54464;50.558;9.704;2023-05-10T14:01:17;2.70;;;1.70;;
27161;SDS011;54464;50.558;9.704;2023-05-10T14:03:42;1.57;;;1.43;;
27161;SDS011;54464;50.558;9.704;2023-05-10T14:06:08;0.80;;;0.70;;
27161;SDS011;54464;50.558;9.704;2023-05-10T14:08:34;0.60;;;0.60;;
27161;SDS011;54464;50.558;9.704;2023-05-10T14:11:00;0.77;;;0.70;;
27161;SDS011;54464;50.558;9.704;2023-05-10T14:13:26;1.27;;;0.63;;
27161;SDS011;54464;50.558;9.704;2023-05-10T14:15:52;1.73;;;0.80;;
27161;SDS011;54464;50.558;9.704;2023-05-10T14:18:18;0.87;;;0.73;;
27161;SDS011;54464;50.558;9.704;2023-05-10T14:20:44;1.97;;;0.80;;
27161;SDS011;54464;50.558;9.704;2023-05-10T14:23:10;1.10;;;1.00;;
27161;SDS011;54464;50.558;9.704;2023-05-10T14:25:36;0.63;;;0.63;;
27161;SDS011;54464;50.558;9.704;2023-05-10T14:28:02;1.70;;;0.90;;
27161;SDS011;54464;50.558;9.704;2023-05-10T14:30:28;1.40;;;1.10;;
27161;SDS011;54464;50.558;9.704;2023-05-10T14:32:54;1.17;;;0.90;;
27161;SDS011;54464;50.558;9.704;2023-05-10T14:35:20;1.40;;;1.30;;
27161;SDS011;54464;50.558;9.704;2023-05-10T14:37:46;1.40;;;1.10;;
27161;SDS011;54464;50.558;9.704;2023-05-10T14:43:00;1.30;;;1.20;;
27161;SDS011;54464;50.558;9.704;2023-05-10T14:45:26;2.10;;;1.23;;
27161;SDS011;54464;50.558;9.704;2023-05-10T14:47:52;1.87;;;1.43;;
27161;SDS011;54464;50.558;9.704;2023-05-10T14:50:17;1.77;;;1.67;;
27161;SDS011;54464;50.558;9.704;2023-05-10T14:52:43;3.23;;;1.73;;
27161;SDS011;54464;50.558;9.704;2023-05-10T14:55:09;1.40;;;1.30;;
27161;SDS011;54464;50.558;9.704;2023-05-10T14:57:35;1.57;;;1.30;;
27161;SDS011;54464;50.558;9.704;2023-05-10T15:00:02;1.70;;;1.40;;
27161;SDS011;54464;50.558;9.704;2023-05-10T15:02:28;1.70;;;1.33;;
27161;SDS011;54464;50.558;9.704;2023-05-10T15:04:55;1.60;;;1.50;;
27161;SDS011;54464;50.558;9.704;2023-05-10T15:07:22;2.00;;;1.77;;
27161;SDS011;54464;50.558;9.704;2023-05-10T15:09:48;1.73;;;1.53;;
27161;SDS011;54464;50.558;9.704;2023-05-10T15:12:15;3.10;;;1.50;;
27161;SDS011;54464;50.558;9.704;2023-05-10T15:14:40;2.47;;;1.60;;
27161;SDS011;54464;50.558;9.704;2023-05-10T15:17:06;3.80;;;2.10;;
27161;SDS011;54464;50.558;9.704;2023-05-10T15:19:32;2.17;;;1.70;;
27161;SDS011;54464;50.558;9.704;2023-05-10T15:21:58;1.73;;;1.50;;
27161;SDS011;54464;50.558;9.704;2023-05-10T15:24:24;2.03;;;1.50;;
27161;SDS011;54464;50.558;9.704;2023-05-10T15:26:50;3.23;;;1.60;;
27161;SDS011;54464;50.558;9.704;2023-05-10T15:29:15;1.80;;;1.70;;
27161;SDS011;54464;50.558;9.704;2023-05-10T15:31:45;1.87;;;1.67;;
27161;SDS011;54464;50.558;9.704;2023-05-10T15:34:11;1.70;;;1.50;;